QTR263 OTHH-EPWA
Flight info
| Callsign | QTR263 |
|---|---|
| Flight time | N/A |
| Altitude | 28000 |
| Route | DATRI L564 BAT/N0524F290 L564 MIGMA/N0517F280 M628 AMBAG/N0494F380 M321 KSA T503 OVANO L768 KUMLO/N0487F400 L768 FIRAS R655 KTN R785 NIKAS L619 VESAR UB545 OKLAM UL619 OSVEL UQ23 OSDAN UQ26 TUDBU DCT UPAMA DCT RUPUG DCT NARKA DCT KELEL/N0492F410 DCT ORTEB/N0493F400 DCT KONZI DCT LOGDA |
| Aircraft | B788/H-SDE1E2E3FGHIJ2J3J4J5M1RWXY/LB1D1 |
Departure
| Time | N/A |
|---|---|
| Airport | Hamad International Airport (OTHH) |
Arrival
| Time | 2026-05-08 04:11 |
|---|---|
| Airport | Warsaw Chopin Airport (EPWA) |
| Time | Latitude | Longitude | Altitude | Speed | Heading |
|---|---|---|---|---|---|
| 2026-05-08 03:18 | 46.22886 | 22.94710 | 40061 ft | 473 kts | 321° |
| 2026-05-08 03:18 | 46.25560 | 22.92024 | 40059 ft | 473 kts | 321° |
| 2026-05-08 03:19 | 46.30966 | 22.86581 | 40060 ft | 473 kts | 321° |
| 2026-05-08 03:19 | 46.36367 | 22.81129 | 40064 ft | 473 kts | 321° |
| 2026-05-08 03:20 | 46.41764 | 22.75669 | 40058 ft | 474 kts | 321° |
| 2026-05-08 03:20 | 46.47168 | 22.70187 | 40061 ft | 474 kts | 321° |
| 2026-05-08 03:21 | 46.52576 | 22.64689 | 40058 ft | 475 kts | 321° |
| 2026-05-08 03:21 | 46.57982 | 22.59179 | 40060 ft | 474 kts | 321° |
| 2026-05-08 03:22 | 46.63384 | 22.53659 | 40058 ft | 474 kts | 321° |
| 2026-05-08 03:22 | 46.68780 | 22.48130 | 40059 ft | 474 kts | 321° |
| 2026-05-08 03:23 | 46.74144 | 22.42622 | 40053 ft | 475 kts | 321° |
| 2026-05-08 03:23 | 46.79541 | 22.37066 | 40057 ft | 475 kts | 321° |
| 2026-05-08 03:24 | 46.84978 | 22.31454 | 40059 ft | 476 kts | 321° |
| 2026-05-08 03:24 | 46.90382 | 22.25862 | 40056 ft | 476 kts | 320° |
| 2026-05-08 03:25 | 46.95583 | 22.19925 | 40042 ft | 474 kts | 318° |
| 2026-05-08 03:25 | 47.00779 | 22.13956 | 40051 ft | 475 kts | 318° |
| 2026-05-08 03:26 | 47.05937 | 22.07977 | 40053 ft | 475 kts | 318° |
| 2026-05-08 03:26 | 47.11172 | 22.01917 | 40056 ft | 476 kts | 318° |
| 2026-05-08 03:27 | 47.16345 | 21.95900 | 40055 ft | 477 kts | 318° |
| 2026-05-08 03:27 | 47.21542 | 21.89848 | 40055 ft | 476 kts | 318° |
| 2026-05-08 03:28 | 47.27013 | 21.84297 | 40056 ft | 482 kts | 328° |
| 2026-05-08 03:28 | 47.32964 | 21.79659 | 40052 ft | 484 kts | 328° |
| 2026-05-08 03:29 | 47.38910 | 21.75004 | 40055 ft | 484 kts | 328° |
| 2026-05-08 03:29 | 47.44856 | 21.70336 | 40059 ft | 484 kts | 328° |
| 2026-05-08 03:30 | 47.53775 | 21.63315 | 40058 ft | 484 kts | 328° |
| 2026-05-08 03:31 | 47.65668 | 21.54032 | 40063 ft | 487 kts | 335° |
| 2026-05-08 03:32 | 47.75599 | 21.49918 | 40038 ft | 493 kts | 342° |
| 2026-05-08 03:32 | 47.82216 | 21.47445 | 40036 ft | 493 kts | 342° |
| 2026-05-08 03:33 | 47.88869 | 21.44906 | 40035 ft | 494 kts | 342° |
| 2026-05-08 03:33 | 47.95529 | 21.42385 | 40033 ft | 494 kts | 342° |
| 2026-05-08 03:34 | 48.02195 | 21.39839 | 40037 ft | 494 kts | 342° |
| 2026-05-08 03:34 | 48.08865 | 21.37294 | 40030 ft | 495 kts | 342° |
| 2026-05-08 03:35 | 48.15545 | 21.34733 | 40022 ft | 496 kts | 342° |
| 2026-05-08 03:35 | 48.22233 | 21.32165 | 40029 ft | 496 kts | 342° |
| 2026-05-08 03:36 | 48.26836 | 21.30392 | 40028 ft | 497 kts | 342° |
| 2026-05-08 03:36 | 48.33533 | 21.27808 | 40034 ft | 498 kts | 342° |
| 2026-05-08 03:37 | 48.40252 | 21.25208 | 40034 ft | 498 kts | 342° |
| 2026-05-08 03:37 | 48.46982 | 21.22597 | 40031 ft | 499 kts | 342° |
| 2026-05-08 03:38 | 48.53704 | 21.19983 | 40027 ft | 498 kts | 342° |
| 2026-05-08 03:38 | 48.60422 | 21.17359 | 40032 ft | 499 kts | 342° |
| 2026-05-08 03:39 | 48.67114 | 21.14744 | 40032 ft | 499 kts | 342° |
| 2026-05-08 03:39 | 48.73839 | 21.12105 | 40032 ft | 500 kts | 342° |
| 2026-05-08 03:40 | 48.80569 | 21.09458 | 40030 ft | 500 kts | 342° |
| 2026-05-08 03:40 | 48.87309 | 21.06799 | 40033 ft | 501 kts | 342° |
| 2026-05-08 03:41 | 48.94069 | 21.04125 | 40031 ft | 501 kts | 342° |
| 2026-05-08 03:41 | 49.00819 | 21.01447 | 40032 ft | 502 kts | 342° |
| 2026-05-08 03:42 | 49.07579 | 20.98759 | 40037 ft | 502 kts | 342° |
| 2026-05-08 03:42 | 49.14288 | 20.96083 | 40036 ft | 502 kts | 342° |
| 2026-05-08 03:43 | 49.21052 | 20.93376 | 40032 ft | 502 kts | 342° |
| 2026-05-08 03:43 | 49.27804 | 20.90668 | 40036 ft | 502 kts | 342° |
| 2026-05-08 03:44 | 49.34552 | 20.87953 | 40034 ft | 502 kts | 342° |
| 2026-05-08 03:44 | 49.41308 | 20.85228 | 40036 ft | 502 kts | 342° |
| 2026-05-08 03:45 | 49.48105 | 20.82478 | 40035 ft | 501 kts | 342° |
| 2026-05-08 03:45 | 49.54851 | 20.79740 | 40033 ft | 501 kts | 342° |
| 2026-05-08 03:46 | 49.61596 | 20.76996 | 40033 ft | 501 kts | 342° |
| 2026-05-08 03:46 | 49.68338 | 20.74244 | 40033 ft | 501 kts | 342° |
| 2026-05-08 03:47 | 49.75237 | 20.72613 | 40053 ft | 506 kts | 356° |
| 2026-05-08 03:47 | 49.82279 | 20.72421 | 40036 ft | 505 kts | 357° |
| 2026-05-08 03:48 | 49.89357 | 20.72312 | 40031 ft | 505 kts | 356° |
| 2026-05-08 03:48 | 49.96387 | 20.72147 | 40037 ft | 505 kts | 356° |
| 2026-05-08 03:49 | 50.03411 | 20.72017 | 40029 ft | 505 kts | 356° |
| 2026-05-08 03:49 | 50.10392 | 20.71867 | 40033 ft | 504 kts | 357° |
| 2026-05-08 03:50 | 50.17422 | 20.71726 | 40036 ft | 505 kts | 357° |
| 2026-05-08 03:50 | 50.24443 | 20.71580 | 40035 ft | 505 kts | 357° |
| 2026-05-08 03:51 | 50.31481 | 20.71435 | 40033 ft | 505 kts | 357° |
| 2026-05-08 03:51 | 50.38496 | 20.71290 | 39846 ft | 502 kts | 357° |
| 2026-05-08 03:51 | 50.42004 | 20.71217 | 39266 ft | 505 kts | 357° |
| 2026-05-08 03:52 | 50.45523 | 20.71143 | 38780 ft | 506 kts | 357° |
| 2026-05-08 03:52 | 50.49049 | 20.71071 | 38182 ft | 507 kts | 357° |
| 2026-05-08 03:52 | 50.52581 | 20.70997 | 37410 ft | 510 kts | 357° |
| 2026-05-08 03:52 | 50.56151 | 20.70921 | 36623 ft | 515 kts | 357° |
| 2026-05-08 03:53 | 50.59746 | 20.70846 | 35837 ft | 520 kts | 357° |
| 2026-05-08 03:53 | 50.63384 | 20.70770 | 35046 ft | 525 kts | 357° |
| 2026-05-08 03:53 | 50.67053 | 20.70694 | 34250 ft | 530 kts | 357° |
| 2026-05-08 03:53 | 50.70761 | 20.70615 | 33356 ft | 535 kts | 358° |
| 2026-05-08 03:54 | 50.74436 | 20.70538 | 32563 ft | 537 kts | 358° |
| 2026-05-08 03:54 | 50.78221 | 20.70459 | 31759 ft | 538 kts | 358° |
| 2026-05-08 03:54 | 50.81922 | 20.70381 | 30962 ft | 539 kts | 359° |
| 2026-05-08 03:54 | 50.85676 | 20.70301 | 30185 ft | 540 kts | 359° |
| 2026-05-08 03:55 | 50.89424 | 20.70223 | 29676 ft | 533 kts | 359° |
| 2026-05-08 03:55 | 50.93123 | 20.70145 | 29053 ft | 529 kts | 359° |
| 2026-05-08 03:55 | 50.96784 | 20.70067 | 28469 ft | 524 kts | 359° |
| 2026-05-08 03:55 | 51.00409 | 20.69989 | 27890 ft | 520 kts | 359° |
| 2026-05-08 03:56 | 51.04018 | 20.69913 | 27332 ft | 515 kts | 359° |
| 2026-05-08 03:56 | 51.07600 | 20.69837 | 26771 ft | 511 kts | 359° |
| 2026-05-08 03:56 | 51.11137 | 20.69761 | 26232 ft | 507 kts | 359° |
| 2026-05-08 03:56 | 51.14650 | 20.69686 | 25699 ft | 503 kts | 359° |
| 2026-05-08 03:57 | 51.18094 | 20.69612 | 25702 ft | 486 kts | 359° |
| 2026-05-08 03:57 | 51.21441 | 20.69540 | 25433 ft | 478 kts | 359° |
| 2026-05-08 03:57 | 51.24727 | 20.69470 | 24880 ft | 474 kts | 359° |
| 2026-05-08 03:57 | 51.28007 | 20.69649 | 24348 ft | 475 kts | 8° |
| 2026-05-08 03:58 | 51.31247 | 20.70880 | 23845 ft | 480 kts | 19° |
| 2026-05-08 03:58 | 51.34412 | 20.72552 | 23258 ft | 478 kts | 19° |
| 2026-05-08 03:58 | 51.37548 | 20.74246 | 22634 ft | 475 kts | 19° |
| 2026-05-08 03:58 | 51.40675 | 20.75937 | 22024 ft | 472 kts | 19° |
| 2026-05-08 03:59 | 51.43756 | 20.77583 | 21298 ft | 456 kts | 19° |
| 2026-05-08 03:59 | 51.46696 | 20.79152 | 20575 ft | 437 kts | 19° |
| 2026-05-08 03:59 | 51.49533 | 20.80681 | 19867 ft | 421 kts | 19° |
| 2026-05-08 03:59 | 51.52256 | 20.82154 | 19178 ft | 406 kts | 19° |
| 2026-05-08 04:00 | 51.54889 | 20.83575 | 18504 ft | 393 kts | 18° |
| 2026-05-08 04:00 | 51.57410 | 20.84933 | 17766 ft | 381 kts | 18° |
| 2026-05-08 04:00 | 51.59893 | 20.86275 | 17009 ft | 371 kts | 18° |
| 2026-05-08 04:00 | 51.62302 | 20.87581 | 16259 ft | 361 kts | 18° |
| 2026-05-08 04:01 | 51.64649 | 20.88852 | 15543 ft | 352 kts | 18° |
| 2026-05-08 04:01 | 51.66938 | 20.90093 | 14844 ft | 343 kts | 18° |
| 2026-05-08 04:01 | 51.69177 | 20.91308 | 14163 ft | 335 kts | 17° |
| 2026-05-08 04:01 | 51.71374 | 20.92466 | 13447 ft | 328 kts | 17° |
| 2026-05-08 04:02 | 51.73527 | 20.93572 | 12707 ft | 322 kts | 17° |
| 2026-05-08 04:02 | 51.75638 | 20.94672 | 11927 ft | 314 kts | 17° |
| 2026-05-08 04:02 | 51.77659 | 20.95841 | 11157 ft | 304 kts | 26° |
| 2026-05-08 04:02 | 51.79374 | 20.97766 | 10426 ft | 297 kts | 36° |
| 2026-05-08 04:03 | 51.81030 | 20.99712 | 9671 ft | 292 kts | 34° |
| 2026-05-08 04:03 | 51.84270 | 21.03506 | 8102 ft | 284 kts | 35° |
| 2026-05-08 04:03 | 51.85851 | 21.05386 | 7399 ft | 278 kts | 35° |
| 2026-05-08 04:04 | 51.87258 | 21.07363 | 7242 ft | 261 kts | 52° |
| 2026-05-08 04:04 | 51.88187 | 21.09886 | 6735 ft | 262 kts | 61° |
| 2026-05-08 04:04 | 51.89031 | 21.12485 | 6096 ft | 259 kts | 62° |
| 2026-05-08 04:04 | 51.89936 | 21.14951 | 5483 ft | 252 kts | 46° |
| 2026-05-08 04:05 | 51.91344 | 21.16489 | 5002 ft | 240 kts | 18° |
| 2026-05-08 04:05 | 51.92952 | 21.16799 | 4499 ft | 229 kts | 351° |
| 2026-05-08 04:05 | 51.94432 | 21.15972 | 3992 ft | 224 kts | 332° |
| 2026-05-08 04:05 | 51.95810 | 21.14782 | 3748 ft | 225 kts | 331° |
| 2026-05-08 04:06 | 51.97152 | 21.13612 | 3753 ft | 211 kts | 331° |
| 2026-05-08 04:06 | 51.98424 | 21.12508 | 3775 ft | 205 kts | 331° |
| 2026-05-08 04:06 | 51.99648 | 21.11449 | 3775 ft | 194 kts | 331° |
| 2026-05-08 04:06 | 52.00804 | 21.10448 | 3782 ft | 182 kts | 331° |
| 2026-05-08 04:07 | 52.01887 | 21.09506 | 3488 ft | 174 kts | 331° |
| 2026-05-08 04:07 | 52.02927 | 21.08600 | 3241 ft | 165 kts | 331° |
| 2026-05-08 04:07 | 52.03902 | 21.07747 | 3021 ft | 154 kts | 331° |
| 2026-05-08 04:07 | 52.04819 | 21.06946 | 2835 ft | 144 kts | 332° |
| 2026-05-08 04:08 | 52.05683 | 21.06197 | 2619 ft | 140 kts | 333° |
| 2026-05-08 04:08 | 52.06548 | 21.05451 | 2440 ft | 141 kts | 333° |
| 2026-05-08 04:08 | 52.07409 | 21.04699 | 2243 ft | 140 kts | 333° |
| 2026-05-08 04:08 | 52.08269 | 21.03945 | 2067 ft | 142 kts | 334° |
| 2026-05-08 04:09 | 52.09147 | 21.03190 | 1867 ft | 143 kts | 334° |
| 2026-05-08 04:09 | 52.10026 | 21.02423 | 1669 ft | 143 kts | 334° |
| 2026-05-08 04:09 | 52.10901 | 21.01658 | 1470 ft | 143 kts | 334° |
| 2026-05-08 04:09 | 52.11775 | 21.00896 | 1262 ft | 142 kts | 334° |
| 2026-05-08 04:10 | 52.12642 | 21.00128 | 1047 ft | 140 kts | 333° |
| 2026-05-08 04:10 | 52.13491 | 20.99382 | 840 ft | 137 kts | 333° |
| 2026-05-08 04:10 | 52.14324 | 20.98664 | 665 ft | 134 kts | 333° |
| 2026-05-08 04:10 | 52.15142 | 20.97957 | 465 ft | 131 kts | 333° |
| 2026-05-08 04:11 | 52.15902 | 20.97297 | 358 ft | 116 kts | 333° |
| 2026-05-08 04:11 | 52.16414 | 20.96849 | 350 ft | 74 kts | 332° |
| 2026-05-08 04:11 | 52.16772 | 20.96540 | 353 ft | 51 kts | 332° |
| 2026-05-08 04:11 | 52.17063 | 20.96294 | 349 ft | 45 kts | 336° |
| 2026-05-08 04:12 | 52.17283 | 20.96243 | 353 ft | 23 kts | 1° |
| 2026-05-08 04:12 | 52.17377 | 20.96266 | 352 ft | 7 kts | 32° |
| 2026-05-08 04:12 | 52.17402 | 20.96311 | 353 ft | 5 kts | 59° |
| 2026-05-08 04:12 | 52.17420 | 20.96359 | 352 ft | 5 kts | 60° |
| 2026-05-08 04:13 | 52.17439 | 20.96415 | 355 ft | 6 kts | 62° |
| 2026-05-08 04:13 | 52.17461 | 20.96481 | 353 ft | 7 kts | 61° |
| 2026-05-08 04:13 | 52.17488 | 20.96547 | 353 ft | 7 kts | 48° |
| 2026-05-08 04:13 | 52.17517 | 20.96613 | 352 ft | 7 kts | 73° |
| 2026-05-08 04:14 | 52.17516 | 20.96661 | 349 ft | 6 kts | 108° |
| 2026-05-08 04:14 | 52.17492 | 20.96713 | 355 ft | 4 kts | 137° |
| 2026-05-08 04:14 | 52.17484 | 20.96726 | 355 ft | 1 kts | 137° |
| 2026-05-08 04:14 | 52.17475 | 20.96739 | 355 ft | 2 kts | 137° |
| 2026-05-08 04:15 | 52.17470 | 20.96746 | 355 ft | 1 kts | 137° |
| 2026-05-08 04:15 | 52.17467 | 20.96751 | 355 ft | 0 kts | 137° |
| 2026-05-08 04:15 | 52.17466 | 20.96752 | 355 ft | 0 kts | 137° |